createdAt,value
2023-04-25T00:03:25.924Z,10.13
2023-04-25T00:08:30.297Z,8.77
2023-04-25T00:13:34.175Z,11.33
2023-04-25T00:18:39.552Z,8.00
2023-04-25T00:23:43.501Z,10.82
2023-04-25T00:28:47.290Z,9.60
2023-04-25T00:33:52.778Z,8.73
2023-04-25T00:38:56.658Z,10.82
2023-04-25T00:44:01.201Z,10.13
2023-04-25T00:49:06.523Z,9.50
2023-04-25T00:54:10.260Z,8.63
2023-04-25T00:59:15.033Z,10.57
2023-04-25T01:04:20.381Z,8.27
2023-04-25T01:09:24.567Z,8.48
2023-04-25T01:14:28.459Z,11.32
2023-04-25T01:19:33.755Z,5.75
2023-04-25T01:24:39.812Z,9.05
2023-04-25T01:29:44.996Z,9.35
2023-04-25T01:34:48.818Z,10.63
2023-04-25T01:39:54.194Z,10.75
2023-04-25T01:44:57.990Z,10.50
2023-04-25T01:50:01.613Z,8.43
2023-04-25T01:55:08.880Z,8.77
2023-04-25T02:00:13.835Z,10.68
2023-04-25T02:05:18.217Z,8.93
2023-04-25T02:10:24.676Z,9.13
2023-04-25T02:15:28.503Z,11.40
2023-04-25T02:20:32.612Z,9.40
2023-04-25T02:25:37.938Z,9.40
2023-04-25T02:30:41.536Z,8.25
2023-04-25T02:35:45.178Z,10.18
2023-04-25T02:40:50.483Z,8.68
2023-04-25T02:45:54.179Z,9.43
2023-04-25T02:50:57.918Z,9.48
2023-04-25T02:56:03.328Z,9.05
2023-04-25T03:01:06.981Z,8.23
2023-04-25T03:06:10.647Z,10.13
2023-04-25T03:11:15.933Z,11.52
2023-04-25T03:16:19.544Z,10.88
2023-04-25T03:21:23.141Z,13.57
2023-04-25T03:26:28.487Z,11.23
2023-04-25T03:31:32.635Z,10.45
2023-04-25T03:36:36.857Z,10.70
2023-04-25T03:41:42.195Z,12.18
2023-04-25T03:46:45.816Z,10.35
2023-04-25T03:51:49.414Z,13.13
2023-04-25T03:56:54.680Z,9.05
2023-04-25T04:01:58.826Z,14.07
2023-04-25T04:07:02.656Z,12.55
2023-04-25T04:12:09.531Z,10.80
2023-04-25T04:17:13.231Z,10.52
2023-04-25T04:22:16.933Z,12.93
2023-04-25T04:27:23.340Z,13.07
2023-04-25T04:32:27.002Z,13.00
2023-04-25T04:37:30.644Z,14.32
2023-04-25T04:42:35.895Z,12.10
2023-04-25T04:47:39.709Z,11.93
2023-04-25T04:52:43.552Z,14.38
2023-04-25T04:57:48.810Z,13.82
2023-04-25T05:02:52.514Z,10.13
2023-04-25T05:07:56.182Z,14.65
2023-04-25T05:13:02.472Z,12.57
2023-04-25T05:18:06.311Z,15.38
2023-04-25T05:23:10.707Z,13.27
2023-04-25T05:28:17.161Z,15.35
2023-04-25T05:33:21.471Z,13.40
2023-04-25T05:38:25.844Z,13.20
2023-04-25T05:43:31.923Z,14.65
2023-04-25T05:53:39.761Z,10.98
2023-04-25T05:58:45.092Z,10.82
2023-04-25T06:03:48.957Z,12.23
2023-04-25T06:08:52.723Z,15.35
2023-04-25T06:13:58.028Z,16.05
2023-04-25T06:19:01.651Z,14.97
2023-04-25T06:24:05.858Z,13.85
2023-04-25T06:29:11.174Z,12.45
2023-04-25T06:34:14.820Z,16.87
2023-04-25T06:39:18.431Z,16.58
2023-04-25T06:44:23.716Z,12.32
2023-04-25T06:49:27.314Z,17.53
2023-04-25T06:54:30.954Z,12.88
2023-04-25T06:59:36.225Z,13.60
2023-04-25T07:04:39.974Z,17.17
2023-04-25T07:09:43.692Z,18.85
2023-04-25T07:14:48.974Z,17.45
2023-04-25T07:19:52.570Z,14.57
2023-04-25T07:24:56.262Z,12.35
2023-04-25T07:30:01.630Z,15.98
2023-04-25T07:35:05.623Z,15.93
2023-04-25T07:40:10.347Z,14.43
2023-04-25T07:45:15.596Z,16.45
2023-04-25T07:50:19.209Z,16.67
2023-04-25T07:55:22.802Z,18.33
2023-04-25T08:00:28.253Z,13.65
2023-04-25T08:05:32.184Z,18.50
2023-04-25T08:10:36.057Z,13.13
2023-04-25T08:15:41.318Z,15.38
2023-04-25T08:20:45.035Z,14.17
2023-04-25T08:25:48.610Z,15.63
2023-04-25T08:30:54.804Z,18.02
2023-04-25T08:35:58.436Z,16.55
2023-04-25T08:41:02.616Z,13.77
2023-04-25T08:46:09.806Z,13.73
2023-04-25T08:51:23.328Z,13.70
2023-04-25T08:56:28.500Z,15.68
2023-04-25T09:01:35.844Z,13.13
2023-04-25T09:06:39.661Z,17.35
2023-04-25T09:11:43.337Z,18.88
2023-04-25T09:17:10.981Z,14.68
2023-04-25T09:22:14.659Z,15.30
2023-04-25T09:27:21.539Z,14.18
2023-04-25T09:32:27.337Z,15.10
2023-04-25T09:37:31.894Z,15.98
2023-04-25T09:42:35.585Z,13.23
2023-04-25T09:47:40.856Z,18.38
2023-04-25T09:52:44.954Z,14.80
2023-04-25T09:57:55.303Z,13.80
2023-04-25T10:03:03.966Z,20.85
2023-04-25T10:08:08.486Z,12.00
2023-04-25T10:13:13.275Z,15.13
2023-04-25T10:18:18.690Z,14.48
2023-04-25T10:23:22.845Z,15.43
2023-04-25T10:28:26.824Z,17.42
2023-04-25T10:33:38.309Z,17.55
2023-04-25T10:38:43.928Z,13.75
2023-04-25T10:43:48.752Z,16.50
2023-04-25T10:48:55.798Z,14.18
2023-04-25T10:54:01.092Z,21.83
2023-04-25T10:59:09.606Z,14.27
2023-04-25T11:04:25.243Z,16.58
2023-04-25T11:09:29.311Z,12.48
2023-04-25T11:14:33.069Z,18.17
2023-04-25T11:19:38.336Z,14.80
2023-04-25T11:24:41.975Z,14.10
2023-04-25T11:29:45.768Z,17.23
2023-04-25T11:34:51.628Z,12.52
2023-04-25T11:39:55.256Z,11.25
2023-04-25T11:44:59.088Z,17.05
2023-04-25T11:50:05.695Z,14.75
2023-04-25T11:55:12.989Z,13.35
2023-04-25T12:00:19.314Z,12.65
2023-04-25T12:05:32.812Z,14.70
2023-04-25T12:10:40.229Z,15.43
2023-04-25T12:20:48.471Z,15.35
2023-04-25T12:25:52.063Z,16.07
2023-04-25T12:30:57.456Z,12.90
2023-04-25T12:36:04.433Z,14.17
2023-04-25T12:41:09.091Z,14.40
2023-04-25T12:46:12.749Z,15.82
2023-04-25T12:51:18.057Z,13.50
2023-04-25T12:56:23.597Z,14.15
2023-04-25T13:01:29.192Z,18.23
2023-04-25T13:06:34.706Z,14.65
2023-04-25T13:11:38.321Z,11.67
2023-04-25T13:16:42.028Z,11.50
2023-04-25T13:21:47.371Z,11.75
2023-04-25T13:26:51.121Z,16.73
2023-04-25T13:31:54.778Z,12.00
2023-04-25T13:37:01.198Z,13.82
2023-04-25T13:42:05.027Z,15.05
2023-04-25T13:47:10.803Z,16.48
2023-04-25T13:52:16.108Z,12.23
2023-04-25T13:57:20.299Z,12.13
2023-04-25T14:02:23.934Z,11.98
2023-04-25T14:07:29.361Z,9.95
2023-04-25T14:12:33.128Z,12.10
2023-04-25T14:17:36.820Z,12.23
2023-04-25T14:22:42.099Z,9.40
2023-04-25T14:27:45.686Z,12.80
2023-04-25T14:32:50.253Z,13.43
2023-04-25T14:37:55.833Z,8.55
2023-04-25T14:42:59.607Z,12.23
2023-04-25T14:48:03.493Z,10.43
2023-04-25T14:53:08.840Z,12.25
2023-04-25T14:58:12.513Z,12.32
2023-04-25T15:03:16.301Z,16.17
2023-04-25T15:08:22.031Z,11.82
2023-04-25T15:13:25.732Z,15.80
2023-04-25T15:18:29.404Z,17.40
2023-04-25T15:23:35.368Z,21.02
2023-04-25T15:28:38.981Z,18.25
2023-04-25T15:33:42.593Z,17.88
2023-04-25T15:38:47.851Z,18.33
2023-04-25T15:43:51.664Z,20.47
2023-04-25T15:48:55.441Z,19.98
2023-04-25T15:54:01.693Z,17.00
2023-04-25T15:59:05.451Z,18.70
2023-04-25T16:04:09.416Z,17.00
2023-04-25T16:09:14.732Z,17.80
2023-04-25T16:14:18.512Z,14.60
2023-04-25T16:19:22.215Z,30.88
2023-04-25T16:24:27.506Z,24.90
2023-04-25T16:29:31.743Z,22.73
2023-04-25T16:34:35.387Z,22.52
2023-04-25T16:39:40.629Z,24.08
2023-04-25T16:44:44.331Z,24.30
2023-04-25T16:49:48.007Z,20.52
2023-04-25T16:54:53.339Z,27.63
2023-04-25T16:59:56.938Z,21.92
2023-04-25T17:05:00.552Z,18.98
2023-04-25T17:10:06.474Z,20.30
2023-04-25T17:15:11.237Z,19.88
2023-04-25T17:20:14.934Z,23.60
2023-04-25T17:25:21.204Z,17.92
2023-04-25T17:30:25.004Z,20.30
2023-04-25T17:35:30.306Z,23.15
2023-04-25T17:45:38.612Z,31.77
2023-04-25T17:50:42.389Z,22.00
2023-04-25T17:55:47.639Z,25.88
2023-04-25T18:00:51.301Z,24.50
2023-04-25T18:05:54.952Z,20.13
2023-04-25T18:11:00.322Z,25.15
2023-04-25T18:16:04.026Z,30.27
2023-04-25T18:21:07.868Z,26.83
2023-04-25T18:26:13.318Z,23.92
2023-04-25T18:31:17.038Z,18.83
2023-04-25T18:36:20.684Z,23.92
2023-04-25T18:41:51.066Z,18.05
2023-04-25T18:46:50.046Z,21.77
2023-04-25T18:51:53.675Z,16.83
2023-04-25T18:56:59.001Z,20.70
2023-04-25T19:02:02.647Z,19.33
2023-04-25T19:07:06.424Z,14.02
2023-04-25T19:12:11.844Z,17.92
2023-04-25T19:17:15.574Z,14.57
2023-04-25T19:22:19.266Z,13.85
2023-04-25T19:27:24.568Z,16.23
2023-04-25T19:32:28.574Z,18.13
2023-04-25T19:37:32.497Z,11.43
2023-04-25T19:42:37.799Z,13.10
2023-04-25T19:47:41.813Z,10.68
2023-04-25T19:52:45.463Z,14.87
2023-04-25T19:57:51.652Z,16.27
2023-04-25T20:02:55.287Z,12.48
2023-04-25T20:07:58.958Z,11.15
2023-04-25T20:13:04.258Z,14.48
2023-04-25T20:18:07.967Z,13.35
2023-04-25T20:23:11.638Z,14.30
2023-04-25T20:28:16.930Z,11.20
2023-04-25T20:33:23.303Z,13.88
2023-04-25T20:38:27.044Z,12.20
2023-04-25T20:43:33.284Z,13.90
2023-04-25T20:48:37.003Z,10.98
2023-04-25T20:53:40.748Z,11.20
2023-04-25T20:58:46.000Z,13.83
2023-04-25T21:03:49.826Z,21.30
2023-04-25T21:08:53.891Z,10.65
2023-04-25T21:13:59.334Z,11.47
2023-04-25T21:19:03.078Z,13.27
2023-04-25T21:24:07.428Z,11.70
2023-04-25T21:29:12.733Z,12.38
2023-04-25T21:34:16.468Z,9.35
2023-04-25T21:39:20.117Z,11.13
2023-04-25T21:44:25.506Z,13.43
2023-04-25T21:49:29.130Z,12.68
2023-04-25T21:54:32.844Z,11.97
2023-04-25T21:59:38.192Z,11.50
2023-04-25T22:04:42.375Z,14.10
2023-04-25T22:09:54.462Z,10.73
2023-04-25T22:15:00.065Z,10.10
2023-04-25T22:20:03.759Z,7.55
2023-04-25T22:25:08.622Z,8.97
2023-04-25T22:30:14.177Z,6.28
2023-04-25T22:35:17.782Z,5.63
2023-04-25T22:40:21.555Z,8.37
2023-04-25T22:45:27.843Z,3.65
2023-04-25T22:50:31.652Z,9.05
2023-04-25T22:55:35.294Z,11.10
2023-04-25T23:00:40.758Z,11.93
2023-04-25T23:05:44.451Z,5.93
2023-04-25T23:10:48.260Z,4.23
2023-04-25T23:15:53.507Z,3.83
2023-04-25T23:20:57.133Z,7.63
2023-04-25T23:26:00.693Z,5.07
2023-04-25T23:31:09.752Z,5.83
2023-04-25T23:36:18.706Z,3.85
2023-04-25T23:41:22.396Z,5.40
2023-04-25T23:46:27.666Z,4.47
2023-04-25T23:51:32.064Z,8.80
